Time;durP1;ratioP1;P1;durP2;ratioP2;P2;SDS_P1;SDS_P2;PMS_P1;PMS_P2;Temp;Humidity;BMP_temperature;BMP_pressure;BME280_temperature;BME280_humidity;BME280_pressure;Samples;Min_cycle;Max_cycle;Signal;HPM_P1;HPM_P2
2023/05/10 00:01:40;;;;;;;9.03;3.30;;;;;;;11.16;73.45;99355.50;5025985;28;20370;-69
2023/05/10 00:04:05;;;;;;;8.10;3.33;;;;;;;11.19;73.88;99381.00;5022073;28;20074;-70
2023/05/10 00:06:31;;;;;;;8.68;2.95;;;;;;;11.19;73.78;99386.34;5023023;28;20433;-70
2023/05/10 00:08:56;;;;;;;5.07;3.47;;;;;;;11.19;74.10;99405.03;5021263;28;20032;-70
2023/05/10 00:11:22;;;;;;;8.27;2.97;;;;;;;11.18;73.90;99374.03;5022659;28;20037;-70
2023/05/10 00:13:47;;;;;;;7.87;3.23;;;;;;;11.13;74.08;99347.09;5022040;28;20400;-69
2023/05/10 00:16:13;;;;;;;8.40;3.13;;;;;;;11.21;74.12;99373.63;5022614;28;20112;-70
2023/05/10 00:18:39;;;;;;;9.13;3.35;;;;;;;11.17;74.54;99401.78;5021999;28;20056;-69
2023/05/10 00:21:05;;;;;;;6.35;3.72;;;;;;;11.15;75.00;99422.50;5030649;28;20038;-70
2023/05/10 00:23:30;;;;;;;14.13;3.65;;;;;;;11.11;75.45;99427.41;5020873;28;20033;-70
2023/05/10 00:25:56;;;;;;;7.93;3.23;;;;;;;11.12;75.30;99417.53;5021646;28;20034;-69
2023/05/10 00:28:21;;;;;;;7.57;3.20;;;;;;;11.05;75.74;99416.69;5038361;28;20044;-70
2023/05/10 00:30:47;;;;;;;5.93;3.30;;;;;;;11.02;75.73;99417.91;5020667;28;20152;-70
2023/05/10 00:33:12;;;;;;;5.50;3.20;;;;;;;11.06;75.91;99413.00;5036668;28;20733;-69
2023/05/10 00:35:38;;;;;;;7.33;3.23;;;;;;;11.13;75.93;99437.91;5026245;28;20090;-71
2023/05/10 00:38:03;;;;;;;6.70;3.67;;;;;;;11.07;76.20;99428.00;5021390;28;20072;-70
2023/05/10 00:40:30;;;;;;;5.63;3.70;;;;;;;11.08;76.34;99432.34;5038142;28;20033;-70
2023/05/10 00:43:00;;;;;;;6.55;3.10;;;;;;;11.19;76.52;99463.81;5018742;28;20072;-70
2023/05/10 00:45:25;;;;;;;8.00;3.38;;;;;;;11.11;76.97;99474.69;5032149;28;20459;-70
2023/05/10 00:47:54;;;;;;;7.93;3.50;;;;;;;11.10;77.00;99467.69;5022853;28;20025;-70
2023/05/10 00:50:21;;;;;;;7.05;3.28;;;;;;;10.99;77.57;99469.06;5019406;28;20037;-70
2023/05/10 00:52:47;;;;;;;5.18;3.30;;;;;;;10.94;77.96;99477.66;5020978;28;20017;-70
2023/05/10 00:55:13;;;;;;;6.50;2.75;;;;;;;10.93;78.11;99496.53;5037948;28;20826;-69
2023/05/10 00:57:38;;;;;;;7.57;3.70;;;;;;;10.86;78.87;99520.50;5033418;28;20033;-70
2023/05/10 01:00:04;;;;;;;5.97;4.22;;;;;;;10.88;79.06;99544.38;5021320;28;20056;-70
2023/05/10 01:02:30;;;;;;;10.35;3.63;;;;;;;10.86;79.43;99541.06;5020896;28;20509;-70
2023/05/10 01:04:56;;;;;;;12.35;4.00;;;;;;;10.78;79.82;99539.38;5021293;28;20037;-70
2023/05/10 01:07:23;;;;;;;6.80;3.58;;;;;;;10.76;80.14;99546.72;5020999;28;20022;-70
2023/05/10 01:09:48;;;;;;;9.38;3.75;;;;;;;10.76;80.70;99589.44;5022463;28;20653;-70
2023/05/10 01:12:15;;;;;;;6.85;2.92;;;;;;;10.76;80.89;99584.94;5004493;28;20070;-70
2023/05/10 01:14:40;;;;;;;10.23;4.00;;;;;;;10.80;80.68;99568.56;5023091;28;20037;-69
2023/05/10 01:17:07;;;;;;;8.57;4.03;;;;;;;10.78;81.32;99582.06;5025938;28;20113;-70
2023/05/10 01:19:34;;;;;;;6.00;3.13;;;;;;;10.75;81.69;99606.50;5034806;28;20971;-70
2023/05/10 01:22:18;;;;;;;9.40;3.75;;;;;;;10.75;81.53;99577.13;5004477;28;20033;-71
2023/05/10 01:25:11;;;;;;;7.65;3.72;;;;;;;10.68;81.43;99531.69;5018914;28;20378;-70
2023/05/10 01:28:14;;;;;;;4.97;3.53;;;;;;;10.72;81.80;99548.97;5033417;28;20477;-69
2023/05/10 01:31:10;;;;;;;8.98;4.00;;;;;;;10.81;81.72;99554.97;5013545;28;20068;-69
2023/05/10 01:33:46;;;;;;;8.18;3.22;;;;;;;10.69;81.91;99540.53;5031192;28;20037;-70
2023/05/10 01:36:32;;;;;;;8.05;3.88;;;;;;;10.81;81.45;99538.97;5037333;28;20467;-69
2023/05/10 01:39:25;;;;;;;5.60;3.55;;;;;;;10.82;81.39;99499.75;5037518;28;20037;-70
2023/05/10 01:42:10;;;;;;;9.82;3.78;;;;;;;10.78;81.28;99481.44;5004678;28;20028;-69
2023/05/10 01:45:02;;;;;;;9.25;3.88;;;;;;;10.75;81.66;99502.38;5031459;28;20513;-70
2023/05/10 01:48:02;;;;;;;9.05;4.20;;;;;;;10.72;81.91;99518.78;5015350;28;20898;-70
2023/05/10 01:50:30;;;;;;;28.67;5.22;;;;;;;10.70;81.96;99500.28;5015892;28;20038;-70
2023/05/10 01:52:58;;;;;;;9.40;3.78;;;;;;;10.80;82.02;99534.66;5037121;28;20060;-70
2023/05/10 01:55:28;;;;;;;5.75;3.47;;;;;;;10.66;82.26;99488.34;5015779;28;20063;-70
2023/05/10 01:58:10;;;;;;;5.93;3.63;;;;;;;10.71;82.18;99491.25;5039539;28;20029;-70
2023/05/10 02:00:39;;;;;;;6.57;3.63;;;;;;;10.63;82.52;99512.75;5035449;28;20100;-69
2023/05/10 02:03:08;;;;;;;5.13;3.30;;;;;;;10.63;83.10;99538.59;5037423;28;20117;-69
2023/05/10 02:05:35;;;;;;;5.28;3.70;;;;;;;10.54;83.33;99527.25;5023049;28;20120;-69
2023/05/10 02:08:05;;;;;;;5.30;4.18;;;;;;;10.60;83.17;99539.00;5039453;28;20029;-69
2023/05/10 02:10:33;;;;;;;8.32;3.90;;;;;;;10.59;83.21;99534.69;5007494;28;20128;-69
2023/05/10 02:12:59;;;;;;;6.03;3.42;;;;;;;10.52;83.82;99556.78;5036607;28;20428;-70
2023/05/10 02:15:26;;;;;;;5.60;3.80;;;;;;;10.50;84.16;99566.84;5027300;28;20037;-69
2023/05/10 02:17:55;;;;;;;8.45;3.58;;;;;;;10.48;84.43;99581.38;5022927;28;20062;-69
2023/05/10 02:20:22;;;;;;;7.07;4.45;;;;;;;10.46;84.56;99594.91;5025397;28;20136;-69
2023/05/10 02:22:50;;;;;;;9.98;4.07;;;;;;;10.38;84.82;99595.03;5039345;28;20025;-70
2023/05/10 02:25:17;;;;;;;31.27;4.63;;;;;;;10.35;85.30;99601.59;5037526;28;20065;-70
2023/05/10 02:27:44;;;;;;;5.47;3.90;;;;;;;10.38;85.78;99621.72;5024957;28;20170;-70
2023/05/10 02:30:10;;;;;;;8.60;3.53;;;;;;;10.44;85.56;99637.00;5023456;28;20030;-70
2023/05/10 02:32:36;;;;;;;;;;;;;;;10.37;85.85;99612.06;5036781;28;20056;-70
2023/05/10 02:35:03;;;;;;;;;;;;;;;10.37;86.36;99644.06;5040051;28;19952;-69
2023/05/10 02:37:29;;;;;;;6.22;3.75;;;;;;;10.39;86.47;99650.03;5026429;28;20454;-69
2023/05/10 02:39:56;;;;;;;15.52;4.07;;;;;;;10.33;86.64;99634.81;5038500;28;20060;-70
2023/05/10 02:42:26;;;;;;;8.45;3.72;;;;;;;10.28;86.98;99637.19;5029114;28;20040;-69
2023/05/10 02:44:56;;;;;;;14.77;4.65;;;;;;;10.24;87.79;99681.25;5023138;28;20124;-69
2023/05/10 02:47:22;;;;;;;4.80;3.58;;;;;;;10.25;88.28;99698.91;5039364;28;20084;-71
2023/05/10 02:49:47;;;;;;;5.03;3.53;;;;;;;10.19;88.39;99684.47;5020373;28;20345;-69
2023/05/10 02:52:19;;;;;;;6.55;4.82;;;;;;;10.17;89.02;99720.34;5023282;28;20064;-70
2023/05/10 02:54:50;;;;;;;6.85;3.95;;;;;;;10.18;89.26;99730.81;5022958;28;20742;-70
2023/05/10 02:57:19;;;;;;;7.20;4.80;;;;;;;10.18;89.59;99717.47;5011809;28;20033;-69
2023/05/10 02:59:45;;;;;;;7.43;3.90;;;;;;;10.14;89.74;99727.69;5010077;28;20025;-70
2023/05/10 03:02:14;;;;;;;8.18;4.22;;;;;;;10.22;90.21;99757.97;5008283;28;20029;-69
2023/05/10 03:04:39;;;;;;;12.15;4.05;;;;;;;10.22;90.91;99789.97;5039192;28;20029;-69
2023/05/10 03:07:05;;;;;;;5.47;4.73;;;;;;;10.02;91.16;99745.19;5022717;28;20071;-71
2023/05/10 03:09:32;;;;;;;10.00;4.50;;;;;;;9.98;92.23;99783.88;5006746;28;20113;-69
2023/05/10 03:12:11;;;;;;;8.80;5.03;;;;;;;10.03;92.91;99826.81;5028972;28;20095;-70
2023/05/10 03:14:52;;;;;;;6.18;4.18;;;;;;;10.07;93.33;99836.13;5019800;28;20121;-69
2023/05/10 03:17:40;;;;;;;12.85;5.13;;;;;;;9.99;93.86;99825.53;5039425;28;20083;-69
2023/05/10 03:20:11;;;;;;;8.98;4.60;;;;;;;10.01;93.88;99820.84;5039101;28;20388;-69
2023/05/10 03:22:40;;;;;;;7.05;4.28;;;;;;;10.00;94.36;99829.88;5023381;28;20032;-69
2023/05/10 03:25:08;;;;;;;12.10;4.55;;;;;;;10.01;95.00;99847.50;5038577;28;20025;-69
2023/05/10 03:27:36;;;;;;;8.80;3.60;;;;;;;9.94;95.19;99830.56;5031700;28;20117;-69
2023/05/10 03:30:02;;;;;;;7.25;4.75;;;;;;;9.94;95.46;99839.41;5020899;28;20025;-70
2023/05/10 03:32:32;;;;;;;6.57;4.35;;;;;;;10.02;95.78;99869.66;5005810;28;20638;-69
2023/05/10 03:34:58;;;;;;;7.85;4.57;;;;;;;9.87;96.41;99835.78;5036392;28;20041;-70
2023/05/10 03:37:24;;;;;;;10.73;4.05;;;;;;;9.90;97.57;99904.78;5006098;28;20060;-69
2023/05/10 03:39:49;;;;;;;7.13;4.23;;;;;;;9.92;98.18;99910.72;5013922;28;20496;-70
2023/05/10 03:42:17;;;;;;;6.57;3.70;;;;;;;9.97;97.39;99880.88;5037698;28;20052;-70
2023/05/10 03:44:43;;;;;;;7.88;4.68;;;;;;;9.93;97.86;99882.25;5005288;28;20407;-70
2023/05/10 03:47:08;;;;;;;7.00;4.70;;;;;;;9.91;98.30;99871.75;5034708;28;20022;-69
2023/05/10 03:49:34;;;;;;;6.20;4.60;;;;;;;10.00;98.55;99915.19;5005440;28;20104;-69
2023/05/10 03:52:00;;;;;;;5.85;4.00;;;;;;;9.92;98.48;99869.91;5036156;28;20307;-69
2023/05/10 03:54:26;;;;;;;11.75;5.43;;;;;;;9.81;98.48;99827.69;5018401;28;20038;-70
2023/05/10 03:56:51;;;;;;;9.67;5.30;;;;;;;9.80;99.14;99860.69;5024606;28;20052;-70
2023/05/10 03:59:18;;;;;;;6.95;4.78;;;;;;;9.89;99.54;99886.28;5031480;28;20044;-69
2023/05/10 04:01:43;;;;;;;5.77;4.23;;;;;;;9.94;100.00;99923.91;5031714;28;20501;-70
2023/05/10 04:04:09;;;;;;;9.90;4.97;;;;;;;10.01;100.00;99924.00;5034376;28;20421;-69
2023/05/10 04:06:34;;;;;;;9.10;4.93;;;;;;;9.98;99.76;99865.72;5025708;28;20112;-69
2023/05/10 04:09:03;;;;;;;41.17;7.68;;;;;;;9.98;99.75;99860.38;5021371;28;20048;-69
2023/05/10 04:11:29;;;;;;;13.70;6.30;;;;;;;10.07;100.00;99891.31;5005173;28;20404;-69
2023/05/10 04:13:54;;;;;;;72.93;8.73;;;;;;;10.11;99.32;99848.09;5019126;28;20075;-70
2023/05/10 04:16:20;;;;;;;7.97;4.47;;;;;;;10.08;99.24;99820.94;5007759;28;20067;-70
2023/05/10 04:18:45;;;;;;;7.07;5.20;;;;;;;10.08;99.64;99834.28;5020377;28;20095;-69
2023/05/10 04:21:12;;;;;;;6.97;4.53;;;;;;;10.20;100.00;99899.50;5021354;28;20164;-69
2023/05/10 04:23:38;;;;;;;8.02;5.25;;;;;;;10.12;100.00;99876.41;5022136;28;20033;-70
2023/05/10 04:26:03;;;;;;;11.73;4.67;;;;;;;10.27;100.00;99915.63;5020729;28;20053;-70
2023/05/10 04:28:29;;;;;;;9.57;4.80;;;;;;;10.29;100.00;99886.97;5021402;28;20040;-70
2023/05/10 04:31:01;;;;;;;6.23;4.40;;;;;;;10.35;99.32;99832.88;5021169;28;20083;-69
2023/05/10 04:33:26;;;;;;;30.33;6.28;;;;;;;10.33;98.77;99784.22;5016628;28;20041;-69
2023/05/10 04:35:51;;;;;;;7.40;4.43;;;;;;;10.35;99.17;99814.22;5021112;28;20076;-69
2023/05/10 04:38:17;;;;;;;10.63;4.70;;;;;;;10.37;98.55;99792.66;5022705;28;20048;-70
2023/05/10 04:40:42;;;;;;;6.63;5.13;;;;;;;10.61;98.34;99826.25;5022594;28;20038;-70
2023/05/10 04:43:08;;;;;;;9.03;4.67;;;;;;;10.60;97.39;99776.53;5014043;28;20058;-70
2023/05/10 04:45:33;;;;;;;10.83;5.40;;;;;;;10.68;97.35;99768.44;5021258;28;20030;-69
2023/05/10 04:47:58;;;;;;;6.60;4.50;;;;;;;10.63;96.83;99749.47;5020029;28;20041;-69
2023/05/10 04:50:24;;;;;;;8.47;4.77;;;;;;;10.66;96.55;99738.44;5023621;28;20069;-69
2023/05/10 04:52:49;;;;;;;71.40;7.87;;;;;;;10.74;96.49;99757.00;5034942;28;20167;-70
2023/05/10 04:55:14;;;;;;;5.93;3.93;;;;;;;10.86;96.38;99776.03;5018044;28;20034;-69
2023/05/10 04:57:40;;;;;;;8.87;5.27;;;;;;;10.95;95.50;99754.34;5018506;28;20044;-70
2023/05/10 05:00:06;;;;;;;11.33;6.13;;;;;;;11.14;94.61;99736.91;5029068;28;20840;-70
2023/05/10 05:02:31;;;;;;;7.82;4.85;;;;;;;11.17;94.18;99715.16;5036841;28;20128;-71
2023/05/10 05:04:57;;;;;;;8.73;5.00;;;;;;;11.16;93.33;99664.56;5018671;28;20753;-71
2023/05/10 05:07:23;;;;;;;6.25;4.93;;;;;;;11.39;93.54;99733.81;5021069;28;20110;-70
2023/05/10 05:09:48;;;;;;;17.13;5.40;;;;;;;11.45;92.53;99668.94;5025982;28;20033;-69
2023/05/10 05:12:14;;;;;;;7.50;4.83;;;;;;;11.41;92.59;99689.03;5021852;28;20040;-69
2023/05/10 05:14:40;;;;;;;15.10;5.77;;;;;;;11.51;91.10;99606.66;5034196;28;20030;-69
2023/05/10 05:17:05;;;;;;;8.73;5.13;;;;;;;12.01;89.88;99634.13;5018313;28;20032;-69
2023/05/10 05:19:31;;;;;;;10.53;4.50;;;;;;;12.91;88.87;99786.63;5020854;28;20029;-70
2023/05/10 05:21:56;;;;;;;7.90;4.38;;;;;;;12.39;86.85;99473.03;5018685;28;20041;-70
2023/05/10 05:24:21;;;;;;;7.33;5.17;;;;;;;12.71;86.78;99583.03;5028426;28;20052;-70
2023/05/10 05:26:47;;;;;;;8.77;5.20;;;;;;;12.76;85.62;99527.00;5019821;28;20026;-70
2023/05/10 05:29:12;;;;;;;49.20;6.73;;;;;;;12.49;84.71;99359.38;5038367;28;20036;-70
2023/05/10 05:31:37;;;;;;;6.90;5.13;;;;;;;12.54;85.00;99421.97;5010130;28;20045;-69
2023/05/10 05:34:03;;;;;;;6.93;5.40;;;;;;;12.58;84.37;99400.97;5024286;28;20069;-71
2023/05/10 05:36:28;;;;;;;8.40;5.07;;;;;;;12.62;84.34;99411.06;5024427;28;20049;-69
2023/05/10 05:38:53;;;;;;;7.90;4.87;;;;;;;12.54;84.39;99384.47;5022616;28;20112;-69
2023/05/10 05:41:23;;;;;;;11.00;6.43;;;;;;;12.49;85.10;99475.31;5010081;28;20152;-70
2023/05/10 05:43:49;;;;;;;7.57;4.72;;;;;;;12.64;85.56;99583.03;5021995;28;20037;-71
2023/05/10 05:46:14;;;;;;;8.30;5.27;;;;;;;12.67;83.99;99432.66;5038212;28;20075;-72
2023/05/10 05:48:40;;;;;;;6.37;5.20;;;;;;;12.89;84.22;99520.81;5039978;28;20149;-71
2023/05/10 05:51:05;;;;;;;6.93;4.70;;;;;;;12.84;83.67;99448.28;5021289;28;20036;-70
2023/05/10 05:53:31;;;;;;;11.93;5.10;;;;;;;12.98;84.42;99616.00;5023254;28;20034;-71
2023/05/10 05:55:58;;;;;;;7.20;4.63;;;;;;;13.82;83.13;99673.50;5021693;28;20049;-69
2023/05/10 05:58:24;;;;;;;9.27;5.57;;;;;;;13.99;79.76;99365.28;5015889;28;20025;-71
2023/05/10 06:00:51;;;;;;;8.63;5.05;;;;;;;13.41;80.91;99395.78;5024612;28;20061;-72
2023/05/10 06:03:17;;;;;;;7.35;4.97;;;;;;;13.33;82.24;99484.47;5023001;28;20523;-71
2023/05/10 06:05:43;;;;;;;9.05;4.82;;;;;;;13.00;82.19;99413.03;5019852;28;20037;-68
2023/05/10 06:08:08;;;;;;;10.05;5.22;;;;;;;13.21;82.74;99553.97;5023371;28;20106;-72
2023/05/10 06:10:33;;;;;;;6.33;4.53;;;;;;;14.00;81.41;99629.91;5028285;28;20036;-70
2023/05/10 06:12:59;;;;;;;6.47;4.50;;;;;;;14.72;79.54;99586.78;5020074;28;20477;-71
2023/05/10 06:15:25;;;;;;;11.20;4.80;;;;;;;14.17;79.23;99442.38;5006859;28;20469;-72
2023/05/10 06:17:51;;;;;;;8.32;4.50;;;;;;;14.79;78.62;99547.25;5020649;28;20881;-70
2023/05/10 06:20:16;;;;;;;8.00;5.10;;;;;;;13.93;77.13;99109.44;5036035;28;20037;-68
2023/05/10 06:22:42;;;;;;;6.83;4.77;;;;;;;13.61;78.29;99233.97;5039175;28;20112;-69
2023/05/10 06:25:08;;;;;;;11.40;5.47;;;;;;;13.48;78.74;99192.78;5020158;28;20131;-72
2023/05/10 06:27:33;;;;;;;11.10;5.28;;;;;;;13.82;79.47;99455.41;5021570;28;20112;-71
2023/05/10 06:29:59;;;;;;;51.67;7.10;;;;;;;13.91;77.87;99255.56;5020866;28;20484;-71
2023/05/10 06:32:24;;;;;;;7.50;4.87;;;;;;;14.49;78.21;99472.69;5005742;28;20437;-71
2023/05/10 06:34:50;;;;;;;7.70;5.10;;;;;;;14.56;76.16;99258.66;5021291;28;20064;-72
2023/05/10 06:37:15;;;;;;;8.20;4.60;;;;;;;14.89;76.38;99380.16;5035347;28;20095;-72
2023/05/10 06:39:40;;;;;;;9.07;6.00;;;;;;;14.59;76.35;99321.00;5025338;28;20063;-70
2023/05/10 06:42:06;;;;;;;69.13;10.67;;;;;;;13.86;75.75;99012.13;5016877;28;20029;-67
2023/05/10 06:44:32;;;;;;;9.10;5.70;;;;;;;14.74;75.76;99341.06;5033752;28;20037;-70
2023/05/10 06:46:57;;;;;;;9.13;4.97;;;;;;;15.60;74.44;99408.25;5020911;28;20039;-71
2023/05/10 06:49:22;;;;;;;6.83;4.70;;;;;;;15.35;73.97;99316.94;5021926;28;20125;-71
2023/05/10 06:51:48;;;;;;;8.17;4.60;;;;;;;15.38;73.36;99214.28;5021588;28;20136;-72
2023/05/10 06:54:13;;;;;;;7.27;5.07;;;;;;;15.28;73.29;99190.66;5035940;28;20081;-71
2023/05/10 06:56:39;;;;;;;5.33;4.37;;;;;;;14.50;74.12;99111.81;5022348;28;20025;-71
2023/05/10 06:59:04;;;;;;;8.97;4.90;;;;;;;14.50;75.88;99290.91;5021347;28;20304;-70
2023/05/10 07:01:29;;;;;;;8.90;5.27;;;;;;;14.12;76.61;99302.66;5020441;28;20075;-70
2023/05/10 07:03:55;;;;;;;7.27;4.80;;;;;;;14.81;76.03;99444.97;5020045;28;20069;-70
2023/05/10 07:06:20;;;;;;;6.40;5.20;;;;;;;15.18;75.26;99462.75;5005771;28;20869;-72
2023/05/10 07:08:46;;;;;;;7.97;5.10;;;;;;;15.06;74.50;99300.59;5020348;28;20105;-71
2023/05/10 07:11:11;;;;;;;8.60;5.27;;;;;;;15.04;74.30;99291.13;5037770;28;20492;-70
2023/05/10 07:13:38;;;;;;;7.10;4.80;;;;;;;14.84;75.96;99425.69;5022072;28;20049;-69
2023/05/10 07:16:06;;;;;;;7.28;5.38;;;;;;;15.35;74.81;99436.06;5021740;28;20025;-71
2023/05/10 07:18:31;;;;;;;7.85;5.55;;;;;;;15.49;74.60;99468.19;5021991;28;20068;-70
2023/05/10 07:20:57;;;;;;;15.03;5.30;;;;;;;15.20;72.56;99102.31;5003283;28;20029;-70
2023/05/10 07:23:22;;;;;;;7.90;5.32;;;;;;;15.74;72.44;99285.16;5008895;28;20073;-73
2023/05/10 07:25:48;;;;;;;5.63;4.23;;;;;;;16.30;73.30;99553.09;5016509;28;20064;-73
2023/05/10 07:28:14;;;;;;;;;;;;;;;16.29;71.81;99332.47;5022055;28;20038;-72
2023/05/10 07:30:40;;;;;;;7.50;4.93;;;;;;;16.69;71.39;99418.78;5037954;28;20430;-73
2023/05/10 07:33:05;;;;;;;5.53;4.27;;;;;;;16.50;70.90;99309.50;5046369;28;20033;-72
2023/05/10 07:35:31;;;;;;;9.97;4.77;;;;;;;17.19;70.10;99421.00;5024084;28;20037;-73
2023/05/10 07:37:56;;;;;;;6.33;3.40;;;;;;;16.88;67.91;99013.34;5005071;28;20124;-70
2023/05/10 07:40:21;;;;;;;7.70;4.67;;;;;;;16.62;67.96;98995.06;5022297;28;20029;-70
2023/05/10 07:42:47;;;;;;;5.67;4.47;;;;;;;15.84;66.96;98623.47;5021248;28;20081;-72
2023/05/10 07:45:12;;;;;;;6.37;4.40;;;;;;;15.75;68.17;98837.47;5021351;28;20026;-73
2023/05/10 07:47:37;;;;;;;8.53;5.13;;;;;;;15.81;68.26;98869.63;5041841;28;20112;-74
2023/05/10 07:50:03;;;;;;;6.97;5.00;;;;;;;15.57;68.11;98776.63;5019558;28;20025;-72
2023/05/10 07:52:29;;;;;;;10.05;4.65;;;;;;;15.57;70.45;99120.91;5023184;28;20112;-72
2023/05/10 07:54:56;;;;;;;6.77;4.30;;;;;;;16.34;69.39;99252.63;5019516;28;20108;-73
2023/05/10 07:57:22;;;;;;;5.50;4.32;;;;;;;16.45;69.71;99286.78;5038544;28;20041;-71
2023/05/10 07:59:47;;;;;;;5.30;3.95;;;;;;;16.85;70.34;99463.09;5022645;28;20024;-73
2023/05/10 08:02:12;;;;;;;7.17;4.53;;;;;;;16.27;68.50;99025.72;5021420;28;20037;-73
2023/05/10 08:04:38;;;;;;;9.17;4.87;;;;;;;15.51;68.36;98812.56;5041244;28;20384;-73
2023/05/10 08:07:03;;;;;;;23.50;6.27;;;;;;;15.19;68.81;98743.16;5034451;28;20025;-71
2023/05/10 08:09:29;;;;;;;7.37;4.10;;;;;;;15.61;69.68;99084.41;5027441;28;20033;-73
2023/05/10 08:11:54;;;;;;;8.97;4.33;;;;;;;15.94;69.30;99140.28;5021650;28;20116;-73
2023/05/10 08:14:20;;;;;;;6.90;4.22;;;;;;;16.07;68.93;99141.91;5032569;28;20140;-72
2023/05/10 08:16:45;;;;;;;13.13;4.93;;;;;;;16.18;68.47;99057.63;5004802;28;20045;-73
2023/05/10 08:19:10;;;;;;;8.10;4.23;;;;;;;16.21;68.51;99092.13;5022162;28;20017;-73
2023/05/10 08:21:36;;;;;;;5.50;4.07;;;;;;;16.52;68.59;99227.41;5020561;28;20393;-70
2023/05/10 08:24:01;;;;;;;4.27;3.87;;;;;;;16.22;67.91;99037.25;5019899;28;20057;-71
2023/05/10 08:26:26;;;;;;;14.05;4.80;;;;;;;16.47;67.54;99076.44;5025432;28;20037;-69
2023/05/10 08:28:52;;;;;;;8.73;4.37;;;;;;;16.46;67.46;99051.41;5036182;28;20033;-70
2023/05/10 08:31:17;;;;;;;12.03;4.53;;;;;;;16.70;66.59;99048.56;5034003;28;20045;-71
2023/05/10 08:33:43;;;;;;;6.13;4.53;;;;;;;17.14;66.67;99197.06;5021945;28;20033;-73
2023/05/10 08:36:08;;;;;;;6.43;4.43;;;;;;;17.04;65.44;98938.06;5027550;28;20476;-71
2023/05/10 08:38:34;;;;;;;8.47;4.00;;;;;;;17.48;65.71;99149.34;5010507;28;20279;-72
2023/05/10 08:41:01;;;;;;;7.63;4.70;;;;;;;17.72;64.51;99051.97;5021667;28;20048;-70
2023/05/10 08:43:31;;;;;;;9.48;4.68;;;;;;;17.59;63.95;98925.53;5015346;28;20029;-72
2023/05/10 08:46:02;;;;;;;6.45;4.20;;;;;;;18.47;64.01;99190.94;5016812;28;20041;-70
2023/05/10 08:48:29;;;;;;;7.72;3.95;;;;;;;19.20;62.74;99244.75;5014865;28;20089;-73
2023/05/10 08:50:57;;;;;;;7.50;4.00;;;;;;;19.29;61.85;99170.19;5016785;28;20153;-72
2023/05/10 08:53:26;;;;;;;6.75;3.95;;;;;;;19.29;61.05;98988.91;5012167;28;20117;-72
2023/05/10 08:55:52;;;;;;;8.32;4.43;;;;;;;18.11;62.80;98879.91;5019088;28;20029;-71
2023/05/10 08:58:19;;;;;;;5.30;4.30;;;;;;;18.72;61.33;98876.03;5018432;28;20033;-72
2023/05/10 09:00:45;;;;;;;5.22;4.30;;;;;;;18.61;62.23;99012.97;5020029;28;20025;-69
2023/05/10 09:03:11;;;;;;;7.30;4.60;;;;;;;19.01;60.35;98851.34;5018871;28;20026;-70
2023/05/10 09:05:36;;;;;;;5.17;4.20;;;;;;;19.87;60.73;99164.91;5028156;28;20029;-69
2023/05/10 09:08:01;;;;;;;6.47;4.28;;;;;;;19.61;59.02;98828.25;5023597;28;20407;-71
2023/05/10 09:10:28;;;;;;;4.80;4.10;;;;;;;19.61;60.07;98964.41;5026109;28;20116;-71
2023/05/10 09:12:56;;;;;;;10.70;4.45;;;;;;;19.39;59.70;98829.28;5024182;28;20033;-70
2023/05/10 09:15:22;;;;;;;10.07;4.50;;;;;;;20.00;58.99;98965.91;5008577;28;20049;-69
2023/05/10 09:17:49;;;;;;;5.32;4.60;;;;;;;20.34;59.26;99112.56;5021456;28;20107;-70
2023/05/10 09:20:17;;;;;;;7.00;4.07;;;;;;;18.97;58.76;98535.50;5038352;28;20069;-70
2023/05/10 09:22:42;;;;;;;8.80;4.47;;;;;;;19.80;58.31;98802.31;5025960;28;20030;-70
2023/05/10 09:25:10;;;;;;;10.83;3.90;;;;;;;20.38;57.13;98855.38;5023625;28;20024;-70
2023/05/10 09:27:37;;;;;;;6.93;4.43;;;;;;;20.88;56.06;98780.44;5022196;28;20893;-69
2023/05/10 09:30:04;;;;;;;7.05;4.05;;;;;;;20.40;56.59;98767.28;5021715;28;20496;-70
2023/05/10 09:32:44;;;;;;;9.15;4.57;;;;;;;19.89;57.00;98556.16;5007034;28;20041;-70
2023/05/10 09:35:14;;;;;;;8.93;4.38;;;;;;;20.39;58.25;99030.44;5026081;28;20119;-70
2023/05/10 09:37:41;;;;;;;6.28;4.15;;;;;;;19.72;57.64;98708.09;5021986;28;20492;-70
2023/05/10 09:40:11;;;;;;;13.43;4.53;;;;;;;19.68;59.06;98915.44;5022240;28;20024;-70
2023/05/10 09:42:36;;;;;;;7.65;4.85;;;;;;;20.40;56.51;98771.91;5023070;28;20120;-68
2023/05/10 09:45:05;;;;;;;13.80;5.83;;;;;;;19.68;57.27;98671.00;5023229;28;20783;-69
2023/05/10 09:47:35;;;;;;;11.52;4.80;;;;;;;19.61;56.20;98389.78;5025186;28;20862;-69
2023/05/10 09:50:04;;;;;;;9.30;4.47;;;;;;;19.10;57.62;98461.09;5022007;28;20025;-70
2023/05/10 09:52:45;;;;;;;8.25;5.03;;;;;;;18.86;58.99;98690.69;5023396;28;20447;-70
2023/05/10 09:55:10;;;;;;;8.52;4.60;;;;;;;19.08;59.32;98793.25;5020608;28;20055;-70
2023/05/10 09:57:35;;;;;;;6.77;4.83;;;;;;;19.43;59.46;98891.00;5023504;28;20120;-71
2023/05/10 10:00:04;;;;;;;9.97;4.63;;;;;;;19.70;58.21;98836.69;5021372;28;20429;-69
2023/05/10 10:02:39;;;;;;;10.63;4.47;;;;;;;19.97;58.97;99093.72;5023160;28;20057;-70
2023/05/10 10:05:06;;;;;;;8.48;4.70;;;;;;;19.42;57.59;98616.88;5038311;28;20061;-71
2023/05/10 10:07:32;;;;;;;5.70;4.15;;;;;;;19.80;58.32;98898.97;5021591;28;20118;-70
2023/05/10 10:09:59;;;;;;;6.50;4.05;;;;;;;20.71;57.37;99078.25;5022726;28;20064;-70
2023/05/10 10:12:24;;;;;;;;;;;;;;;20.06;57.04;98769.78;5039951;28;20041;-71
2023/05/10 10:14:50;;;;;;;7.00;4.30;;;;;;;19.32;58.00;98642.06;5020077;28;19913;-70
2023/05/10 10:17:16;;;;;;;6.45;4.28;;;;;;;20.48;57.00;98992.78;5038059;28;20882;-69
2023/05/10 10:19:42;;;;;;;;;;;;;;;19.55;56.23;98426.06;5026288;28;20147;-71
2023/05/10 10:22:07;;;;;;;7.57;4.78;;;;;;;19.00;58.76;98679.34;5039283;28;19913;-71
2023/05/10 10:24:33;;;;;;;7.50;4.63;;;;;;;19.66;58.68;98904.03;5022778;28;20041;-71
2023/05/10 10:27:23;;;;;;;5.78;4.40;;;;;;;19.00;58.49;98645.00;5021790;28;20119;-71
2023/05/10 10:30:02;;;;;;;5.40;4.47;;;;;;;19.23;57.48;98594.19;5022156;28;20033;-71
2023/05/10 10:32:30;;;;;;;10.77;4.60;;;;;;;18.77;57.50;98392.25;5027464;28;20042;-70
2023/05/10 10:34:56;;;;;;;7.82;4.80;;;;;;;18.41;59.05;98557.06;5028270;28;20851;-73
2023/05/10 10:37:22;;;;;;;5.93;4.68;;;;;;;19.25;57.91;98781.38;5018723;28;20052;-72
2023/05/10 10:39:50;;;;;;;14.43;4.73;;;;;;;19.97;57.71;98955.59;5007830;28;20029;-69
2023/05/10 10:42:45;;;;;;;8.43;4.95;;;;;;;18.99;58.56;98702.88;5009115;28;20060;-69
2023/05/10 10:45:12;;;;;;;8.23;4.38;;;;;;;18.58;58.96;98650.56;5023113;28;20154;-75
2023/05/10 10:47:37;;;;;;;;;;;;;;;19.00;59.41;98910.00;5031498;28;20476;-69
2023/05/10 10:50:05;;;;;;;6.32;5.05;;;;;;;18.90;58.45;98678.25;5036151;28;20019;-71
2023/05/10 10:52:35;;;;;;;10.30;4.95;;;;;;;18.96;60.03;98958.41;5012730;28;20888;-74
2023/05/10 10:55:11;;;;;;;10.65;4.80;;;;;;;18.45;60.41;98811.28;5015260;28;20901;-74
2023/05/10 10:57:49;;;;;;;7.40;4.30;;;;;;;18.98;59.87;98931.91;5008840;28;20100;-75
2023/05/10 11:00:27;;;;;;;5.72;4.78;;;;;;;18.96;59.29;98882.69;5032193;28;20562;-71
2023/05/10 11:03:14;;;;;;;7.82;4.65;;;;;;;19.16;60.06;98994.78;5037299;28;20041;-71
2023/05/10 11:05:41;;;;;;;6.10;4.05;;;;;;;18.86;59.54;98893.44;5016458;28;20160;-71
2023/05/10 11:08:14;;;;;;;6.68;4.55;;;;;;;19.39;59.54;99059.28;5015942;28;20611;-71
2023/05/10 11:10:48;;;;;;;9.38;4.82;;;;;;;19.78;58.35;98980.47;5024105;28;20048;-69
2023/05/10 11:13:13;;;;;;;9.75;4.63;;;;;;;19.01;59.03;98797.25;5021645;28;20042;-69
2023/05/10 11:15:40;;;;;;;6.47;4.33;;;;;;;19.59;58.52;98953.00;5008024;28;20029;-70
2023/05/10 11:18:25;;;;;;;;;;;;;;;19.07;58.65;98755.63;5015705;28;20066;-72
2023/05/10 11:21:02;;;;;;;5.72;4.55;;;;;;;19.49;59.05;99033.38;5014673;28;20421;-69
2023/05/10 11:23:40;;;;;;;8.35;4.80;;;;;;;19.42;58.82;98943.50;5003797;28;20443;-71
2023/05/10 11:26:09;;;;;;;11.05;4.82;;;;;;;19.64;58.41;98976.59;5023096;28;20086;-69
2023/05/10 11:28:40;;;;;;;7.03;4.68;;;;;;;20.19;57.60;99039.38;5008609;28;20105;-69
2023/05/10 11:31:06;;;;;;;5.15;4.28;;;;;;;19.50;58.04;98822.03;5035291;28;20710;-74
2023/05/10 11:33:42;;;;;;;9.60;5.35;;;;;;;18.68;60.00;98818.16;5011384;28;20037;-69
2023/05/10 11:36:11;;;;;;;5.63;4.55;;;;;;;19.19;59.90;99038.31;5015576;28;20611;-69
2023/05/10 11:38:36;;;;;;;7.00;4.47;;;;;;;19.10;60.08;99012.03;5022330;28;20463;-73